createdAt,value
2018-11-05T00:00:40.610Z,79.20
2018-11-05T00:03:08.804Z,82.57
2018-11-05T00:05:36.963Z,75.60
2018-11-05T00:08:05.396Z,73.93
2018-11-05T00:10:33.467Z,78.27
2018-11-05T00:13:01.585Z,76.30
2018-11-05T00:15:29.664Z,80.83
2018-11-05T00:17:57.970Z,77.10
2018-11-05T00:20:26.069Z,82.33
2018-11-05T00:22:54.234Z,79.10
2018-11-05T00:25:22.412Z,75.40
2018-11-05T00:27:50.622Z,75.50
2018-11-05T00:30:18.736Z,77.30
2018-11-05T00:32:46.848Z,74.07
2018-11-05T00:35:14.958Z,78.70
2018-11-05T00:37:43.137Z,85.03
2018-11-05T00:40:13.585Z,83.67
2018-11-05T00:42:42.276Z,86.20
2018-11-05T00:45:11.342Z,91.73
2018-11-05T00:47:39.765Z,88.37
2018-11-05T00:50:09.156Z,88.57
2018-11-05T00:52:37.377Z,79.20
2018-11-05T00:55:05.652Z,86.03
2018-11-05T00:57:33.817Z,78.93
2018-11-05T01:00:01.957Z,87.47
2018-11-05T01:02:30.334Z,90.83
2018-11-05T01:04:58.681Z,86.47
2018-11-05T01:07:26.848Z,83.80
2018-11-05T01:09:55.011Z,86.27
2018-11-05T01:12:23.132Z,81.07
2018-11-05T01:14:51.225Z,86.70
2018-11-05T01:17:19.357Z,79.20
2018-11-05T01:19:47.480Z,84.20
2018-11-05T01:22:15.573Z,84.57
2018-11-05T01:24:43.680Z,80.67
2018-11-05T01:27:11.800Z,85.47
2018-11-05T01:29:39.919Z,82.03
2018-11-05T01:32:08.013Z,84.20
2018-11-05T01:34:36.788Z,77.90
2018-11-05T01:37:05.094Z,84.53
2018-11-05T01:39:33.187Z,86.53
2018-11-05T01:42:01.317Z,79.60
2018-11-05T01:44:29.368Z,90.00
2018-11-05T01:46:57.433Z,81.17
2018-11-05T01:49:25.575Z,87.93
2018-11-05T01:51:53.686Z,83.67
2018-11-05T01:54:21.778Z,90.63
2018-11-05T01:56:49.871Z,84.60
2018-11-05T01:59:17.976Z,83.20
2018-11-05T02:01:46.154Z,80.00
2018-11-05T02:04:14.303Z,83.47
2018-11-05T02:06:42.493Z,83.70
2018-11-05T02:09:10.667Z,85.30
2018-11-05T02:11:38.813Z,83.10
2018-11-05T02:14:06.921Z,85.27
2018-11-05T02:16:35.090Z,88.33
2018-11-05T02:19:03.205Z,81.83
2018-11-05T02:21:31.372Z,88.57
2018-11-05T02:23:59.467Z,85.90
2018-11-05T02:26:27.640Z,80.93
2018-11-05T02:28:55.709Z,83.33
2018-11-05T02:31:23.840Z,91.03
2018-11-05T02:33:51.962Z,93.87
2018-11-05T02:36:20.164Z,93.73
2018-11-05T02:38:48.328Z,89.67
2018-11-05T02:41:16.472Z,92.43
2018-11-05T02:43:44.603Z,85.50
2018-11-05T02:46:12.722Z,85.27
2018-11-05T02:48:41.064Z,76.83
2018-11-05T02:51:09.208Z,81.47
2018-11-05T02:53:37.340Z,81.47
2018-11-05T02:56:05.606Z,82.70
2018-11-05T02:58:33.750Z,89.13
2018-11-05T03:01:01.879Z,75.37
2018-11-05T03:03:29.992Z,89.80
2018-11-05T03:05:58.083Z,79.83
2018-11-05T03:08:26.214Z,80.77
2018-11-05T03:10:54.328Z,81.10
2018-11-05T03:13:22.410Z,75.20
2018-11-05T03:15:50.527Z,76.80
2018-11-05T03:18:18.660Z,82.93
2018-11-05T03:20:46.798Z,76.77
2018-11-05T03:23:14.902Z,75.70
2018-11-05T03:25:43.025Z,72.27
2018-11-05T03:28:11.175Z,77.33
2018-11-05T03:30:39.339Z,77.10
2018-11-05T03:33:07.473Z,72.17
2018-11-05T03:35:35.706Z,75.07
2018-11-05T03:38:03.747Z,74.20
2018-11-05T03:40:31.911Z,74.67
2018-11-05T03:43:00.069Z,80.83
2018-11-05T03:45:28.208Z,75.40
2018-11-05T03:47:56.332Z,81.67
2018-11-05T03:50:24.450Z,73.97
2018-11-05T03:52:52.533Z,82.77
2018-11-05T03:55:20.701Z,82.00
2018-11-05T03:57:48.873Z,78.57
2018-11-05T04:00:18.044Z,80.90
2018-11-05T04:02:46.181Z,86.70
2018-11-05T04:05:14.300Z,86.20
2018-11-05T04:07:42.409Z,89.00
2018-11-05T04:10:11.640Z,81.37
2018-11-05T04:12:40.648Z,77.53
2018-11-05T04:15:08.868Z,77.53
2018-11-05T04:17:36.969Z,80.20
2018-11-05T04:20:06.368Z,77.10
2018-11-05T04:22:34.540Z,73.23
2018-11-05T04:25:02.700Z,81.93
2018-11-05T04:27:30.923Z,77.33
2018-11-05T04:29:59.007Z,79.10
2018-11-05T04:32:27.128Z,71.77
2018-11-05T04:34:55.273Z,74.07
2018-11-05T04:37:23.413Z,81.47
2018-11-05T04:39:51.587Z,74.90
2018-11-05T04:42:19.692Z,69.77
2018-11-05T04:44:47.873Z,80.57
2018-11-05T04:47:16.049Z,76.40
2018-11-05T04:49:44.163Z,71.13
2018-11-05T04:52:12.289Z,75.53
2018-11-05T04:54:40.335Z,69.13
2018-11-05T04:57:08.425Z,75.43
2018-11-05T04:59:36.602Z,72.63
2018-11-05T05:02:04.785Z,76.37
2018-11-05T05:04:32.901Z,76.17
2018-11-05T05:07:01.015Z,77.87
2018-11-05T05:09:29.219Z,77.20
2018-11-05T05:11:57.367Z,76.20
2018-11-05T05:14:25.550Z,75.90
2018-11-05T05:16:53.676Z,83.30
2018-11-05T05:19:21.803Z,72.47
2018-11-05T05:21:49.940Z,78.17
2018-11-05T05:24:18.045Z,79.80
2018-11-05T05:26:46.144Z,76.23
2018-11-05T05:29:14.237Z,87.20
2018-11-05T05:31:42.398Z,77.77
2018-11-05T05:34:10.490Z,86.93
2018-11-05T05:36:38.583Z,84.27
2018-11-05T05:39:07.130Z,81.83
2018-11-05T05:41:35.250Z,81.93
2018-11-05T05:44:03.371Z,86.27
2018-11-05T05:46:31.494Z,82.87
2018-11-05T05:48:59.650Z,85.93
2018-11-05T05:51:27.787Z,87.17
2018-11-05T05:53:55.924Z,83.07
2018-11-05T05:56:24.110Z,85.80
2018-11-05T05:58:52.224Z,81.07
2018-11-05T06:01:20.368Z,83.27
2018-11-05T06:03:48.587Z,85.60
2018-11-05T06:06:16.882Z,87.17
2018-11-05T06:08:44.867Z,89.30
2018-11-05T06:11:13.110Z,84.67
2018-11-05T06:13:41.236Z,84.37
2018-11-05T06:16:09.601Z,82.97
2018-11-05T06:18:37.789Z,90.10
2018-11-05T06:21:05.916Z,80.23
2018-11-05T06:23:34.099Z,84.93
2018-11-05T06:26:02.291Z,84.83
2018-11-05T06:28:30.526Z,79.20
2018-11-05T06:30:58.635Z,85.97
2018-11-05T06:33:26.789Z,78.73
2018-11-05T06:35:54.965Z,80.30
2018-11-05T06:38:23.123Z,79.73
2018-11-05T06:40:51.301Z,85.83
2018-11-05T06:43:19.405Z,82.23
2018-11-05T06:45:47.645Z,77.83
2018-11-05T06:48:15.742Z,76.90
2018-11-05T06:50:43.890Z,85.63
2018-11-05T06:53:12.074Z,83.23
2018-11-05T06:55:40.175Z,80.87
2018-11-05T06:58:08.306Z,79.77
2018-11-05T07:00:36.440Z,80.83
2018-11-05T07:03:04.735Z,84.83
2018-11-05T07:05:32.839Z,79.63
2018-11-05T07:08:01.874Z,81.13
2018-11-05T07:10:30.112Z,77.17
2018-11-05T07:12:58.256Z,80.80
2018-11-05T07:15:26.352Z,82.93
2018-11-05T07:17:55.482Z,74.53
2018-11-05T07:20:23.767Z,71.73
2018-11-05T07:22:52.360Z,71.03
2018-11-05T07:25:20.754Z,75.63
2018-11-05T07:27:49.005Z,77.20
2018-11-05T07:30:21.429Z,74.50
2018-11-05T07:32:50.625Z,77.30
2018-11-05T07:35:18.912Z,78.63
2018-11-05T07:37:47.059Z,81.07
2018-11-05T07:40:16.586Z,76.07
2018-11-05T07:42:44.731Z,81.17
2018-11-05T07:45:14.832Z,77.00
2018-11-05T07:47:43.916Z,69.40
2018-11-05T07:50:13.064Z,70.33
2018-11-05T07:52:41.142Z,67.73
2018-11-05T07:55:10.736Z,70.17
2018-11-05T07:57:39.691Z,64.93
2018-11-05T08:00:14.430Z,66.93
2018-11-05T08:02:42.681Z,68.60
2018-11-05T08:05:10.811Z,64.17
2018-11-05T08:07:38.976Z,63.40
2018-11-05T08:10:08.815Z,64.00
2018-11-05T08:12:37.217Z,59.30
2018-11-05T08:15:05.752Z,61.13
2018-11-05T08:17:33.934Z,61.27
2018-11-05T08:20:02.450Z,58.53
2018-11-05T08:22:30.630Z,57.70
2018-11-05T08:24:58.822Z,54.77
2018-11-05T08:27:27.015Z,58.50
2018-11-05T08:29:55.356Z,53.50
2018-11-05T08:32:23.548Z,53.70
2018-11-05T08:34:52.496Z,53.13
2018-11-05T08:37:20.830Z,50.77
2018-11-05T08:39:48.931Z,55.20
2018-11-05T08:42:17.184Z,49.53
2018-11-05T08:44:45.460Z,47.03
2018-11-05T08:47:13.775Z,53.93
2018-11-05T08:49:41.965Z,51.03
2018-11-05T08:52:10.757Z,39.67
2018-11-05T08:54:39.270Z,39.93
2018-11-05T08:57:07.466Z,39.03
2018-11-05T08:59:35.636Z,35.27
2018-11-05T09:02:03.874Z,35.33
2018-11-05T09:04:32.198Z,37.00
2018-11-05T09:07:00.293Z,35.67
2018-11-05T09:09:28.502Z,32.33
2018-11-05T09:11:56.695Z,35.80
2018-11-05T09:14:24.837Z,35.47
2018-11-05T09:16:52.951Z,29.63
2018-11-05T09:19:21.081Z,30.53
2018-11-05T09:21:50.187Z,35.67
2018-11-05T09:24:18.340Z,36.00
2018-11-05T09:26:46.525Z,32.93
2018-11-05T09:29:14.710Z,33.30
2018-11-05T09:31:42.874Z,38.77
2018-11-05T09:34:10.986Z,38.33
2018-11-05T09:36:39.163Z,35.20
2018-11-05T09:39:07.609Z,35.97
2018-11-05T09:41:35.809Z,32.30
2018-11-05T09:44:03.977Z,30.73
2018-11-05T09:46:32.107Z,28.33
2018-11-05T09:49:00.255Z,33.97
2018-11-05T09:51:28.438Z,32.30
2018-11-05T09:53:56.673Z,32.53
2018-11-05T09:56:24.802Z,27.67
2018-11-05T09:58:53.066Z,32.93
2018-11-05T10:01:21.187Z,30.60
2018-11-05T10:03:54.807Z,30.43
2018-11-05T10:06:23.374Z,31.00
2018-11-05T10:08:51.447Z,30.87
2018-11-05T10:11:19.882Z,28.60
2018-11-05T10:13:48.035Z,27.27
2018-11-05T10:16:16.282Z,28.97
2018-11-05T10:18:44.408Z,27.63
2018-11-05T10:21:12.888Z,28.40
2018-11-05T10:23:41.022Z,26.40
2018-11-05T10:26:09.316Z,26.93
2018-11-05T10:28:37.550Z,26.40
2018-11-05T10:31:05.722Z,29.20
2018-11-05T10:33:33.992Z,28.43
2018-11-05T10:36:02.130Z,25.73
2018-11-05T10:38:30.372Z,29.20
2018-11-05T10:40:58.481Z,28.90
2018-11-05T10:43:26.752Z,24.67
2018-11-05T10:45:54.946Z,27.23
2018-11-05T10:48:23.129Z,29.13
2018-11-05T10:50:51.232Z,27.70
2018-11-05T10:53:19.370Z,25.10
2018-11-05T10:55:47.582Z,23.93
2018-11-05T10:58:15.765Z,26.83
2018-11-05T11:00:49.157Z,25.57
2018-11-05T11:03:20.108Z,24.20
2018-11-05T11:05:48.262Z,25.17
2018-11-05T11:08:16.530Z,26.30
2018-11-05T11:10:44.747Z,22.97
2018-11-05T11:13:12.975Z,28.87
2018-11-05T11:15:41.146Z,24.13
2018-11-05T11:18:09.346Z,20.53
2018-11-05T11:20:37.468Z,23.30
2018-11-05T11:23:05.633Z,20.17
2018-11-05T11:25:33.852Z,22.23
2018-11-05T11:28:02.226Z,21.63
2018-11-05T11:30:30.274Z,21.60
2018-11-05T11:32:58.488Z,24.17
2018-11-05T11:35:26.680Z,26.87
2018-11-05T11:37:54.786Z,21.03
2018-11-05T11:40:23.702Z,21.60
2018-11-05T11:42:51.837Z,20.70
2018-11-05T11:45:21.258Z,22.47
2018-11-05T11:47:49.431Z,21.17
2018-11-05T11:50:17.967Z,20.97
2018-11-05T11:52:46.332Z,21.27
2018-11-05T11:55:16.457Z,20.37
2018-11-05T11:57:44.655Z,18.73
2018-11-05T12:00:15.344Z,24.23
2018-11-05T12:02:43.666Z,19.13
2018-11-05T12:05:12.046Z,18.93
2018-11-05T12:07:40.072Z,21.30
2018-11-05T12:10:10.078Z,22.17
2018-11-05T12:12:38.252Z,21.80
2018-11-05T12:15:06.596Z,20.93
2018-11-05T12:17:34.749Z,20.87
2018-11-05T12:20:03.502Z,25.27
2018-11-05T12:22:31.681Z,20.47
2018-11-05T12:24:59.927Z,19.23
2018-11-05T12:27:28.051Z,23.90
2018-11-05T12:29:56.262Z,20.83
2018-11-05T12:32:24.469Z,20.80
2018-11-05T12:34:52.580Z,23.70
2018-11-05T12:37:20.754Z,31.10
2018-11-05T12:39:48.907Z,27.47
2018-11-05T12:42:17.065Z,20.57
2018-11-05T12:44:45.260Z,32.37
2018-11-05T12:47:13.414Z,23.87
2018-11-05T12:49:41.561Z,21.33
2018-11-05T12:52:09.849Z,29.70
2018-11-05T12:54:38.026Z,25.80
2018-11-05T12:57:06.168Z,24.43
2018-11-05T12:59:34.278Z,19.03
2018-11-05T13:02:02.413Z,23.27
2018-11-05T13:04:30.590Z,24.37
2018-11-05T13:06:58.717Z,21.07
2018-11-05T13:09:27.023Z,20.27
2018-11-05T13:11:55.236Z,19.37
2018-11-05T13:14:23.400Z,19.67
2018-11-05T13:16:54.895Z,20.43
2018-11-05T13:19:23.115Z,18.37
2018-11-05T13:21:51.214Z,18.03
2018-11-05T13:24:19.360Z,18.83
2018-11-05T13:26:47.548Z,17.93
2018-11-05T13:29:15.784Z,22.07
2018-11-05T13:31:43.968Z,19.90
2018-11-05T13:34:12.453Z,20.07
2018-11-05T13:36:40.682Z,24.97
2018-11-05T13:39:09.501Z,17.37
2018-11-05T13:41:37.715Z,19.23
2018-11-05T13:44:06.004Z,23.30
2018-11-05T13:46:34.655Z,33.20
2018-11-05T13:49:02.883Z,22.23
2018-11-05T13:51:30.902Z,19.40
2018-11-05T13:53:59.264Z,20.57
2018-11-05T13:56:27.345Z,28.00
2018-11-05T13:58:55.638Z,21.73
2018-11-05T14:01:23.746Z,22.13
2018-11-05T14:03:51.860Z,25.80
2018-11-05T14:06:19.973Z,19.60
2018-11-05T14:08:48.110Z,21.00
2018-11-05T14:11:16.246Z,16.20
2018-11-05T14:13:44.382Z,23.67
2018-11-05T14:16:12.504Z,25.37
2018-11-05T14:18:40.588Z,20.73
2018-11-05T14:21:08.696Z,17.90
2018-11-05T14:23:36.812Z,14.40
2018-11-05T14:26:05.977Z,32.30
2018-11-05T14:28:34.366Z,25.73
2018-11-05T14:31:02.158Z,16.87
2018-11-05T14:33:30.511Z,17.77
2018-11-05T14:35:58.741Z,25.87
2018-11-05T14:38:26.919Z,18.20
2018-11-05T14:40:54.999Z,19.47
2018-11-05T14:43:23.127Z,17.73
2018-11-05T14:45:51.263Z,20.10
2018-11-05T14:48:19.442Z,18.47
2018-11-05T14:50:47.614Z,20.37
2018-11-05T14:53:15.799Z,19.20
2018-11-05T14:55:43.948Z,18.20
2018-11-05T14:58:12.188Z,21.63
2018-11-05T15:00:40.287Z,17.50
2018-11-05T15:03:08.584Z,17.07
2018-11-05T15:05:36.701Z,17.83
2018-11-05T15:08:05.300Z,17.93
2018-11-05T15:10:33.383Z,14.73
2018-11-05T15:13:01.553Z,17.10
2018-11-05T15:15:29.739Z,19.00
2018-11-05T15:17:57.815Z,18.63
2018-11-05T15:20:26.026Z,15.73
2018-11-05T15:22:54.294Z,15.43
2018-11-05T15:25:22.736Z,16.13
2018-11-05T15:27:50.982Z,17.53
2018-11-05T15:30:20.665Z,17.13
2018-11-05T15:32:48.822Z,17.53
2018-11-05T15:35:17.011Z,17.23
2018-11-05T15:37:45.420Z,16.30
2018-11-05T15:40:14.844Z,13.87
2018-11-05T15:42:43.410Z,16.27
2018-11-05T15:45:15.940Z,18.80
2018-11-05T15:47:44.617Z,21.53
2018-11-05T15:50:14.598Z,16.77
2018-11-05T15:52:43.237Z,21.20
2018-11-05T15:55:11.756Z,16.57
2018-11-05T15:57:40.190Z,22.03
2018-11-05T16:00:15.172Z,16.93
2018-11-05T16:02:43.830Z,15.93
2018-11-05T16:05:12.685Z,17.43
2018-11-05T16:07:40.866Z,17.17
2018-11-05T16:10:09.043Z,16.53
2018-11-05T16:12:37.455Z,16.93
2018-11-05T16:15:06.125Z,15.87
2018-11-05T16:17:34.396Z,17.90
2018-11-05T16:20:02.568Z,15.90
2018-11-05T16:22:30.756Z,14.47
2018-11-05T16:24:59.266Z,16.57
2018-11-05T16:27:27.474Z,15.67
2018-11-05T16:29:55.786Z,14.93
2018-11-05T16:32:23.981Z,18.57
2018-11-05T16:34:52.189Z,15.27
2018-11-05T16:37:20.315Z,16.07
2018-11-05T16:39:49.127Z,16.57
2018-11-05T16:42:17.301Z,20.70
2018-11-05T16:44:45.537Z,20.07
2018-11-05T16:47:13.685Z,15.73
2018-11-05T16:49:41.852Z,16.20
2018-11-05T16:52:10.877Z,17.90
2018-11-05T16:54:39.070Z,17.07
2018-11-05T16:57:07.392Z,21.37
2018-11-05T16:59:36.096Z,17.47
2018-11-05T17:02:08.875Z,17.63
2018-11-05T17:04:37.111Z,22.90
2018-11-05T17:07:05.218Z,21.43
2018-11-05T17:09:33.376Z,20.80
2018-11-05T17:12:01.554Z,19.13
2018-11-05T17:14:29.845Z,20.50
2018-11-05T17:16:58.038Z,17.83
2018-11-05T17:19:26.250Z,18.23
2018-11-05T17:21:54.419Z,17.20
2018-11-05T17:24:22.611Z,18.43
2018-11-05T17:26:51.792Z,18.97
2018-11-05T17:29:20.037Z,20.67
2018-11-05T17:31:48.163Z,18.13
2018-11-05T17:34:16.300Z,18.33
2018-11-05T17:36:44.417Z,19.53
2018-11-05T17:39:13.460Z,21.90
2018-11-05T17:41:42.233Z,17.70
2018-11-05T17:44:11.862Z,21.97
2018-11-05T17:46:40.088Z,17.80
2018-11-05T17:49:09.870Z,20.43
2018-11-05T17:51:38.068Z,21.90
2018-11-05T17:54:06.474Z,17.13
2018-11-05T17:56:34.670Z,18.03
2018-11-05T17:59:03.047Z,21.80
2018-11-05T18:01:31.221Z,20.73
2018-11-05T18:03:59.518Z,18.73
2018-11-05T18:06:27.700Z,18.70
2018-11-05T18:08:56.086Z,18.73
2018-11-05T18:11:24.171Z,20.27
2018-11-05T18:13:52.306Z,20.73
2018-11-05T18:16:20.489Z,21.20
2018-11-05T18:18:48.752Z,17.37
2018-11-05T18:21:17.136Z,20.60
2018-11-05T18:23:45.232Z,20.37
2018-11-05T18:26:15.442Z,18.37
2018-11-05T18:28:43.891Z,21.00
2018-11-05T18:31:12.094Z,21.67
2018-11-05T18:33:40.620Z,24.07
2018-11-05T18:36:08.849Z,17.27
2018-11-05T18:38:37.000Z,16.47
2018-11-05T18:41:05.509Z,18.83
2018-11-05T18:43:33.653Z,20.37
2018-11-05T18:46:01.838Z,22.83
2018-11-05T18:48:30.187Z,23.27
2018-11-05T18:50:58.348Z,25.57
2018-11-05T18:53:26.559Z,22.10
2018-11-05T18:55:54.670Z,19.83
2018-11-05T18:58:22.866Z,23.00
2018-11-05T19:00:51.126Z,18.17
2018-11-05T19:03:19.382Z,21.97
2018-11-05T19:05:47.438Z,19.97
2018-11-05T19:08:15.799Z,22.77
2018-11-05T19:10:43.949Z,26.17
2018-11-05T19:13:12.121Z,22.87
2018-11-05T19:15:40.345Z,27.60
2018-11-05T19:18:08.553Z,21.67
2018-11-05T19:20:36.820Z,20.60
2018-11-05T19:23:05.282Z,22.80
2018-11-05T19:25:33.274Z,24.07
2018-11-05T19:28:01.543Z,23.13
2018-11-05T19:30:29.862Z,22.40
2018-11-05T19:32:57.966Z,26.37
2018-11-05T19:35:26.180Z,22.13
2018-11-05T19:37:54.299Z,21.10
2018-11-05T19:40:22.456Z,22.73
2018-11-05T19:42:50.731Z,22.13
2018-11-05T19:45:20.270Z,21.13
2018-11-05T19:47:48.448Z,22.97
2018-11-05T19:50:17.950Z,22.37
2018-11-05T19:52:46.435Z,24.83
2018-11-05T19:55:15.637Z,19.97
2018-11-05T19:57:44.639Z,23.37
2018-11-05T20:00:20.143Z,18.27
2018-11-05T20:02:48.841Z,21.83
2018-11-05T20:05:17.481Z,22.10
2018-11-05T20:07:46.186Z,20.80
2018-11-05T20:10:14.656Z,27.10
2018-11-05T20:12:43.491Z,24.53
2018-11-05T20:15:11.889Z,25.03
2018-11-05T20:17:41.073Z,25.83
2018-11-05T20:20:10.172Z,26.33
2018-11-05T20:22:38.326Z,28.83
2018-11-05T20:25:07.148Z,30.07
2018-11-05T20:27:35.702Z,23.87
2018-11-05T20:30:04.308Z,29.40
2018-11-05T20:32:33.039Z,24.43
2018-11-05T20:35:00.636Z,24.97
2018-11-05T20:37:28.836Z,23.30
2018-11-05T20:39:57.184Z,28.03
2018-11-05T20:42:25.196Z,23.87
2018-11-05T20:44:53.347Z,25.73
2018-11-05T20:47:21.471Z,29.33
2018-11-05T20:49:49.660Z,26.07
2018-11-05T20:52:17.848Z,25.43
2018-11-05T20:54:45.996Z,27.23
2018-11-05T20:57:14.434Z,28.90
2018-11-05T20:59:42.617Z,28.80
2018-11-05T21:02:10.841Z,28.03
2018-11-05T21:04:39.169Z,34.67
2018-11-05T21:07:07.653Z,24.80
2018-11-05T21:09:42.767Z,22.57
2018-11-05T21:12:11.285Z,32.83
2018-11-05T21:14:39.633Z,31.90
2018-11-05T21:17:07.799Z,37.43
2018-11-05T21:19:35.919Z,34.87
2018-11-05T21:22:04.224Z,36.90
2018-11-05T21:24:32.311Z,37.20
2018-11-05T21:27:01.623Z,33.03
2018-11-05T21:29:29.931Z,31.47
2018-11-05T21:31:58.113Z,33.33
2018-11-05T21:34:26.263Z,31.97
2018-11-05T21:36:54.810Z,35.13
2018-11-05T21:39:23.116Z,36.23
2018-11-05T21:41:51.254Z,32.97
2018-11-05T21:44:19.484Z,32.80
2018-11-05T21:46:47.645Z,39.43
2018-11-05T21:49:15.759Z,37.50
2018-11-05T21:51:44.176Z,43.97
2018-11-05T21:54:12.412Z,39.97
2018-11-05T21:56:40.551Z,47.20
2018-11-05T22:12:40.595Z,30.47
2018-11-05T22:15:08.925Z,39.87
2018-11-05T22:17:37.246Z,48.33
2018-11-05T22:20:06.222Z,55.60
2018-11-05T22:22:34.674Z,44.00
2018-11-05T22:25:09.961Z,46.27
2018-11-05T22:27:38.393Z,44.40
2018-11-05T22:30:13.349Z,41.53
2018-11-05T22:32:41.661Z,38.23
2018-11-05T22:37:44.970Z,43.47
2018-11-05T22:40:14.241Z,54.23
2018-11-05T22:42:42.700Z,59.60
2018-11-05T22:45:12.528Z,80.67
2018-11-05T22:47:41.032Z,63.53
2018-11-05T22:50:09.566Z,59.60
2018-11-05T22:52:44.348Z,57.80
2018-11-05T22:55:12.596Z,51.40
2018-11-05T22:57:40.784Z,52.30
2018-11-05T23:00:15.252Z,55.90
2018-11-05T23:02:48.641Z,58.30
2018-11-05T23:06:05.943Z,57.87
2018-11-05T23:08:34.231Z,60.10
2018-11-05T23:11:02.408Z,58.67
2018-11-05T23:13:30.547Z,59.80
2018-11-05T23:15:58.711Z,63.10
2018-11-05T23:18:26.881Z,53.77
2018-11-05T23:20:55.085Z,57.27
2018-11-05T23:23:23.220Z,59.20
2018-11-05T23:25:51.348Z,64.37
2018-11-05T23:28:19.528Z,64.43
2018-11-05T23:30:47.692Z,65.30
2018-11-05T23:33:15.877Z,66.17
2018-11-05T23:35:43.976Z,68.40
2018-11-05T23:38:12.081Z,69.27
2018-11-05T23:40:40.263Z,73.13
2018-11-05T23:43:08.420Z,63.83
2018-11-05T23:45:36.617Z,65.17
2018-11-05T23:48:05.140Z,58.80
2018-11-05T23:50:33.279Z,63.53
2018-11-05T23:53:01.416Z,55.80
2018-11-05T23:55:29.566Z,58.63
2018-11-05T23:57:57.692Z,55.67
